Time;durP1;ratioP1;P1;durP2;ratioP2;P2;SDS_P1;SDS_P2;PMS_P1;PMS_P2;Temp;Humidity;BMP_temperature;BMP_pressure;BME280_temperature;BME280_humidity;BME280_pressure;Samples;Min_cycle;Max_cycle;Signal;HPM_P1;HPM_P2
2021/12/15 00:00:20;;;;;;;77.78;29.40;;;10.10;99.90;;;;;;5102312;28;20040;-69
2021/12/15 00:02:50;;;;;;;73.13;29.77;;;10.10;99.90;;;;;;5114890;28;20039;-69
2021/12/15 00:05:22;;;;;;;64.55;29.00;;;10.10;99.90;;;;;;5106175;28;20070;-69
2021/12/15 00:07:56;;;;;;;66.72;30.25;;;10.10;99.90;;;;;;5124204;28;20047;-69
2021/12/15 00:10:23;;;;;;;64.20;29.73;;;10.10;99.90;;;;;;5124437;28;20096;-69
2021/12/15 00:12:49;;;;;;;68.50;28.75;;;10.10;99.90;;;;;;5114288;28;20048;-69
2021/12/15 00:15:15;;;;;;;64.57;30.55;;;10.10;99.90;;;;;;5124319;28;20103;-69
2021/12/15 00:17:41;;;;;;;63.90;30.65;;;10.10;99.90;;;;;;5123779;28;20052;-69
2021/12/15 00:20:12;;;;;;;73.00;29.85;;;10.10;99.90;;;;;;5105883;28;20063;-69
2021/12/15 00:22:38;;;;;;;72.50;30.40;;;10.10;99.90;;;;;;5123915;28;20039;-69
2021/12/15 00:25:06;;;;;;;68.45;29.42;;;10.10;99.90;;;;;;5124012;28;20032;-69
2021/12/15 00:27:32;;;;;;;69.53;30.33;;;10.10;99.90;;;;;;5123771;28;20079;-69
2021/12/15 00:29:57;;;;;;;68.90;29.13;;;10.10;99.90;;;;;;5123327;28;20050;-69
2021/12/15 00:32:23;;;;;;;67.93;30.05;;;10.10;99.90;;;;;;5104522;28;20069;-69
2021/12/15 00:34:51;;;;;;;71.55;30.23;;;10.10;99.90;;;;;;5123452;28;20375;-69
2021/12/15 00:37:18;;;;;;;67.47;29.77;;;10.10;99.90;;;;;;5109235;28;20055;-69
2021/12/15 00:39:44;;;;;;;73.00;30.17;;;10.10;99.90;;;;;;5124163;28;20400;-69
2021/12/15 00:42:10;;;;;;;69.30;29.17;;;10.10;99.90;;;;;;5122867;28;20058;-69
2021/12/15 00:44:36;;;;;;;67.35;30.02;;;10.10;99.90;;;;;;5105680;28;20039;-69
2021/12/15 00:47:03;;;;;;;57.35;28.52;;;10.10;99.90;;;;;;5123585;28;20040;-69
2021/12/15 00:49:29;;;;;;;69.50;30.40;;;10.10;99.90;;;;;;5123365;28;20136;-69
2021/12/15 00:51:55;;;;;;;64.47;29.20;;;10.10;99.90;;;;;;5104853;28;20113;-69
2021/12/15 00:54:22;;;;;;;73.68;28.77;;;10.10;99.90;;;;;;5123457;28;20036;-69
2021/12/15 00:56:51;;;;;;;61.70;27.23;;;10.10;99.90;;;;;;5122857;28;20119;-69
2021/12/15 00:59:17;;;;;;;59.10;27.45;;;10.10;99.90;;;;;;5101483;28;20090;-69
2021/12/15 01:01:43;;;;;;;65.18;27.50;;;10.10;99.90;;;;;;5109086;28;20039;-69
2021/12/15 01:04:11;;;;;;;62.10;27.85;;;10.10;99.90;;;;;;5104238;28;20055;-69
2021/12/15 01:06:39;;;;;;;56.40;26.85;;;10.10;99.90;;;;;;5123579;28;20504;-69
2021/12/15 01:09:10;;;;;;;64.07;27.05;;;10.10;99.90;;;;;;5123519;28;20421;-69
2021/12/15 01:12:11;;;;;;;68.18;28.40;;;10.10;99.90;;;;;;5123308;28;20032;-69
2021/12/15 01:19:59;;;;;;;57.15;28.90;;;10.10;99.90;;;;;;5104668;28;20047;-69
2021/12/15 01:22:31;;;;;;;59.65;26.52;;;10.10;99.90;;;;;;5104509;28;20467;-69
2021/12/15 01:25:13;;;;;;;54.67;26.42;;;10.10;99.90;;;;;;5104234;28;20122;-69
2021/12/15 01:27:39;;;;;;;63.70;27.77;;;10.10;99.90;;;;;;5123449;28;20447;-69
2021/12/15 01:30:07;;;;;;;59.75;27.42;;;10.10;99.90;;;;;;5104580;28;20039;-69
2021/12/15 01:32:32;;;;;;;68.53;27.88;;;10.10;99.90;;;;;;5100650;28;20036;-69
2021/12/15 01:34:58;;;;;;;64.95;28.50;;;10.10;99.90;;;;;;5090701;28;20040;-69
2021/12/15 01:37:24;;;;;;;59.90;28.50;;;10.10;99.90;;;;;;5101202;28;20070;-69
2021/12/15 01:39:54;;;;;;;54.90;28.13;;;10.10;99.90;;;;;;5114250;28;20104;-69
2021/12/15 01:42:20;;;;;;;72.22;29.45;;;10.10;99.90;;;;;;5127250;28;20071;-69
2021/12/15 01:47:30;;;;;;;62.67;28.50;;;10.20;99.90;;;;;;5126513;28;20051;-68
2021/12/15 01:49:56;;;;;;;63.20;27.60;;;10.20;99.90;;;;;;5088224;28;20047;-69
2021/12/15 01:52:31;;;;;;;68.68;28.88;;;10.20;99.90;;;;;;5094764;28;20048;-69
2021/12/15 01:55:07;;;;;;;65.47;28.75;;;10.20;99.90;;;;;;5108586;28;20169;-69
2021/12/15 01:57:34;;;;;;;58.90;28.20;;;10.20;99.90;;;;;;5122455;28;20054;-69
2021/12/15 02:00:05;;;;;;;67.53;30.70;;;10.10;99.90;;;;;;5107874;28;20061;-68
2021/12/15 02:02:30;;;;;;;59.00;29.63;;;10.20;99.90;;;;;;5108041;28;20089;-69
2021/12/15 02:04:56;;;;;;;58.33;29.77;;;10.20;99.90;;;;;;5108310;28;20047;-68
2021/12/15 02:07:23;;;;;;;63.73;30.27;;;10.20;99.90;;;;;;5104626;28;20302;-69
2021/12/15 02:12:21;;;;;;;70.72;30.70;;;10.20;99.90;;;;;;5125678;28;20537;-69
2021/12/15 02:14:47;;;;;;;70.50;30.63;;;10.20;99.90;;;;;;5104560;28;20060;-69
2021/12/15 02:17:14;;;;;;;62.17;30.70;;;10.20;99.90;;;;;;5104307;28;20044;-69
2021/12/15 02:19:40;;;;;;;66.32;30.83;;;10.20;99.90;;;;;;5104724;28;20067;-69
2021/12/15 02:22:06;;;;;;;64.30;30.55;;;10.20;99.90;;;;;;5105847;28;20237;-69
2021/12/15 02:24:34;;;;;;;73.88;32.08;;;10.20;99.90;;;;;;5106040;28;20484;-69
2021/12/15 02:27:01;;;;;;;58.45;30.58;;;10.20;99.90;;;;;;5104015;28;20084;-69
2021/12/15 02:29:32;;;;;;;67.22;31.50;;;10.20;99.90;;;;;;5105743;28;20551;-68
2021/12/15 02:32:18;;;;;;;67.20;30.15;;;10.20;99.90;;;;;;5087133;28;20063;-69
2021/12/15 02:37:28;;;;;;;60.58;29.77;;;10.20;99.90;;;;;;5095743;28;20052;-69
2021/12/15 02:40:06;;;;;;;61.30;30.70;;;10.20;99.90;;;;;;5105051;28;20066;-69
2021/12/15 02:42:37;;;;;;;71.22;31.60;;;10.20;99.90;;;;;;5087152;28;20479;-69
2021/12/15 02:45:08;;;;;;;70.20;31.55;;;10.20;99.90;;;;;;5104149;28;20055;-69
2021/12/15 02:47:34;;;;;;;66.43;31.17;;;10.20;99.90;;;;;;5103451;28;20463;-69
2021/12/15 02:50:02;;;;;;;76.93;32.53;;;10.20;99.90;;;;;;5100673;28;20063;-69
2021/12/15 02:52:28;;;;;;;67.85;31.58;;;10.20;99.90;;;;;;5093426;28;20417;-69
2021/12/15 02:54:54;;;;;;;67.88;31.27;;;10.20;99.90;;;;;;5104164;28;20076;-69
2021/12/15 02:57:20;;;;;;;68.57;31.67;;;10.20;99.90;;;;;;5101482;28;20047;-69
2021/12/15 03:00:15;;;;;;;58.47;31.00;;;10.20;99.90;;;;;;5097375;28;20074;-69
2021/12/15 03:05:26;;;;;;;76.18;32.15;;;10.20;99.90;;;;;;5104203;28;20055;-69
2021/12/15 03:15:54;;;;;;;64.03;31.58;;;10.20;99.90;;;;;;5103502;28;20111;-68
2021/12/15 03:18:23;;;;;;;71.10;31.73;;;10.20;99.90;;;;;;5103006;28;20059;-69
2021/12/15 03:20:54;;;;;;;66.75;31.23;;;10.20;99.90;;;;;;5105033;28;20036;-69
2021/12/15 03:23:39;;;;;;;71.50;31.55;;;10.20;99.90;;;;;;5104633;28;20080;-69
2021/12/15 03:26:07;;;;;;;70.88;33.47;;;10.20;99.90;;;;;;5103685;28;20044;-69
2021/12/15 03:37:03;;;;;;;64.97;32.90;;;10.20;99.90;;;;;;5100863;28;20083;-69
2021/12/15 03:39:31;;;;;;;64.10;32.92;;;10.20;99.90;;;;;;5094326;28;20044;-68
2021/12/15 03:42:02;;;;;;;65.35;32.85;;;10.20;99.90;;;;;;5100976;28;20059;-69
2021/12/15 03:44:30;;;;;;;67.03;34.30;;;10.20;99.90;;;;;;5102698;28;20056;-69
2021/12/15 03:46:56;;;;;;;71.88;35.28;;;10.20;99.90;;;;;;5102323;28;20067;-69
2021/12/15 03:49:23;;;;;;;63.08;33.03;;;10.20;99.90;;;;;;5103728;28;20036;-69
2021/12/15 03:51:48;;;;;;;70.18;33.35;;;10.20;99.90;;;;;;5102978;28;20100;-68
2021/12/15 03:54:15;;;;;;;70.68;34.22;;;10.20;99.90;;;;;;5104150;28;20504;-69
2021/12/15 03:56:42;;;;;;;69.80;33.85;;;10.20;99.90;;;;;;5102972;28;20051;-68
2021/12/15 03:59:08;;;;;;;62.35;33.10;;;10.20;99.90;;;;;;5103619;28;20112;-69
2021/12/15 04:01:34;;;;;;;63.17;34.20;;;10.20;99.90;;;;;;5102651;28;20096;-69
2021/12/15 04:04:01;;;;;;;;;;;10.20;99.90;;;;;;5085191;28;20116;-68
2021/12/15 04:06:34;;;;;;;65.28;31.65;;;10.20;99.90;;;;;;5104244;28;20446;-69
2021/12/15 04:09:00;;;;;;;64.32;33.17;;;10.20;99.90;;;;;;5104041;28;20081;-69
2021/12/15 04:11:27;;;;;;;;;;;10.20;99.90;;;;;;5103011;28;20053;-69
2021/12/15 04:13:59;;;;;;;66.90;33.83;;;10.20;99.90;;;;;;5102063;28;19920;-69
2021/12/15 04:18:57;;;;;;;64.55;34.03;;;10.20;99.90;;;;;;5101696;28;20056;-69
2021/12/15 04:21:23;;;;;;;66.85;32.65;;;10.20;99.90;;;;;;5104138;28;20048;-68
2021/12/15 04:23:50;;;;;;;65.47;33.67;;;10.20;99.90;;;;;;5101973;28;20040;-69
2021/12/15 04:26:16;;;;;;;66.45;32.65;;;10.30;99.90;;;;;;5103543;28;20052;-68
2021/12/15 04:28:42;;;;;;;57.90;32.35;;;10.20;99.90;;;;;;5101048;28;20118;-69
2021/12/15 04:31:10;;;;;;;67.28;32.42;;;10.20;99.90;;;;;;5102177;28;20123;-68
2021/12/15 04:33:44;;;;;;;69.68;33.03;;;10.20;99.90;;;;;;5087618;28;20040;-69
2021/12/15 04:36:12;;;;;;;61.88;32.55;;;10.20;99.90;;;;;;5101302;28;20100;-69
2021/12/15 04:38:39;;;;;;;61.05;32.20;;;10.30;99.90;;;;;;5093661;28;20107;-68
2021/12/15 04:41:09;;;;;;;79.22;32.65;;;10.20;99.90;;;;;;5101987;28;20089;-69
2021/12/15 04:43:39;;;;;;;70.20;31.40;;;10.20;99.90;;;;;;5100226;28;20032;-69
2021/12/15 04:46:07;;;;;;;66.53;32.00;;;10.20;99.90;;;;;;5101583;28;20055;-69
2021/12/15 04:48:33;;;;;;;58.78;31.27;;;10.30;99.90;;;;;;5101223;28;20064;-69
2021/12/15 04:50:59;;;;;;;59.97;30.25;;;10.30;99.90;;;;;;5100272;28;20128;-69
2021/12/15 04:53:25;;;;;;;60.67;30.95;;;10.20;99.90;;;;;;5103034;28;20118;-69
2021/12/15 04:55:51;;;;;;;61.83;29.75;;;10.20;99.90;;;;;;5102967;28;20040;-68
2021/12/15 04:58:17;;;;;;;63.13;30.05;;;10.20;99.90;;;;;;5102763;28;20036;-69
2021/12/15 05:00:47;;;;;;;60.45;30.45;;;10.30;99.90;;;;;;5102469;28;20562;-69
2021/12/15 05:03:13;;;;;;;57.05;29.52;;;10.20;99.90;;;;;;5101250;28;20052;-69
2021/12/15 05:05:39;;;;;;;61.20;30.05;;;10.20;99.90;;;;;;5102821;28;20036;-68
2021/12/15 05:08:07;;;;;;;66.50;31.02;;;10.20;99.90;;;;;;5102508;28;20103;-69
2021/12/15 05:10:33;;;;;;;60.20;30.95;;;10.20;99.90;;;;;;5098042;28;20112;-69
2021/12/15 05:12:59;;;;;;;;;;;10.20;99.90;;;;;;5081764;28;20044;-69
2021/12/15 05:15:26;;;;;;;61.45;29.23;;;10.20;99.90;;;;;;5089829;28;20011;-69
2021/12/15 05:17:52;;;;;;;66.68;31.52;;;10.20;99.90;;;;;;5100965;28;20052;-69
2021/12/15 05:20:18;;;;;;;60.63;29.52;;;10.20;99.90;;;;;;5102105;28;20040;-69
2021/12/15 05:22:44;;;;;;;64.30;30.08;;;10.20;99.90;;;;;;5102994;28;20059;-68
2021/12/15 05:25:11;;;;;;;56.45;29.90;;;10.20;99.90;;;;;;5101287;28;20101;-68
2021/12/15 05:27:38;;;;;;;68.00;31.67;;;10.20;99.90;;;;;;5100340;28;20055;-69
2021/12/15 05:30:06;;;;;;;61.80;31.15;;;10.20;99.90;;;;;;5102259;28;20092;-69
2021/12/15 05:32:32;;;;;;;65.90;30.42;;;10.20;99.90;;;;;;5100847;28;20047;-68
2021/12/15 05:34:59;;;;;;;54.28;31.15;;;10.20;99.90;;;;;;5100832;28;20048;-68
2021/12/15 05:37:26;;;;;;;70.20;31.67;;;10.20;99.90;;;;;;5101684;28;20052;-69
2021/12/15 05:39:52;;;;;;;62.40;30.08;;;10.20;99.90;;;;;;5102188;28;20203;-69
2021/12/15 05:42:19;;;;;;;;;;;10.20;99.90;;;;;;5081916;28;20075;-69
2021/12/15 05:44:46;;;;;;;66.78;31.33;;;10.10;99.90;;;;;;5101881;28;19935;-69
2021/12/15 05:47:12;;;;;;;63.80;32.42;;;10.20;99.90;;;;;;5102181;28;20061;-68
2021/12/15 05:49:38;;;;;;;57.50;31.60;;;10.20;99.90;;;;;;5102560;28;20063;-68
2021/12/15 05:52:05;;;;;;;69.65;32.05;;;10.20;99.90;;;;;;5099844;28;20067;-69
2021/12/15 05:54:31;;;;;;;66.65;32.22;;;10.20;99.90;;;;;;5102065;28;20039;-69
2021/12/15 05:56:57;;;;;;;58.75;31.40;;;10.20;99.90;;;;;;5102445;28;20054;-69
2021/12/15 05:59:23;;;;;;;64.28;30.00;;;10.20;99.90;;;;;;5102619;28;20040;-68
2021/12/15 06:01:50;;;;;;;66.75;30.83;;;10.20;99.90;;;;;;5097651;28;20372;-69
2021/12/15 06:04:16;;;;;;;68.78;32.60;;;10.20;99.90;;;;;;5091875;28;20127;-69
2021/12/15 06:06:41;;;;;;;65.60;30.77;;;10.20;99.90;;;;;;5102329;28;20139;-69
2021/12/15 06:09:09;;;;;;;64.55;31.00;;;10.20;99.90;;;;;;5102511;28;20107;-69
2021/12/15 06:11:36;;;;;;;59.83;29.73;;;10.20;99.90;;;;;;5102062;28;20475;-68
2021/12/15 06:14:02;;;;;;;64.95;30.67;;;10.20;99.90;;;;;;5100989;28;20519;-68
2021/12/15 06:16:28;;;;;;;64.13;29.88;;;10.20;99.90;;;;;;5100645;28;20083;-69
2021/12/15 06:18:53;;;;;;;66.47;32.57;;;10.20;99.90;;;;;;5116165;28;20097;-69
2021/12/15 06:21:21;;;;;;;65.40;30.83;;;10.20;99.90;;;;;;5104153;28;20313;-68
2021/12/15 06:23:48;;;;;;;60.25;29.83;;;10.20;99.90;;;;;;5103855;28;20032;-69
2021/12/15 06:26:15;;;;;;;61.85;30.63;;;10.20;99.90;;;;;;5104811;28;20051;-69
2021/12/15 06:28:41;;;;;;;72.57;30.15;;;10.20;99.90;;;;;;5120794;28;20136;-69
2021/12/15 06:31:09;;;;;;;59.53;30.43;;;10.20;99.90;;;;;;5118819;28;20066;-69
2021/12/15 06:33:38;;;;;;;64.78;30.38;;;10.20;99.90;;;;;;5106962;28;20329;-69
2021/12/15 06:36:05;;;;;;;72.82;31.27;;;10.20;99.90;;;;;;5107497;28;20043;-69
2021/12/15 06:38:37;;;;;;;68.05;31.77;;;10.20;99.90;;;;;;5126505;28;20043;-68
2021/12/15 06:41:06;;;;;;;58.03;30.58;;;10.20;99.90;;;;;;5107008;28;20061;-68
2021/12/15 06:43:32;;;;;;;61.20;30.42;;;10.20;99.90;;;;;;5103940;28;20050;-68
2021/12/15 06:46:31;;;;;;;69.75;30.75;;;10.20;99.90;;;;;;5124511;28;20137;-68
2021/12/15 06:57:32;;;;;;;60.88;30.42;;;10.20;99.90;;;;;;5112002;28;20047;-69
2021/12/15 06:59:59;;;;;;;58.78;30.20;;;10.30;99.90;;;;;;5110212;28;20444;-69
2021/12/15 07:02:25;;;;;;;65.18;30.60;;;10.20;99.90;;;;;;5088119;28;20044;-69
2021/12/15 07:04:51;;;;;;;63.03;29.55;;;10.30;99.90;;;;;;5106724;28;20054;-68
2021/12/15 07:07:17;;;;;;;60.87;29.87;;;10.20;99.90;;;;;;5106978;28;20040;-68
2021/12/15 07:09:43;;;;;;;57.63;29.95;;;10.30;99.90;;;;;;5125667;28;20047;-68
2021/12/15 07:12:09;;;;;;;62.43;28.53;;;10.30;99.90;;;;;;5107415;28;20112;-69
2021/12/15 07:14:35;;;;;;;56.15;29.05;;;10.30;99.90;;;;;;5125144;28;20309;-68
2021/12/15 07:17:08;;;;;;;57.05;27.95;;;10.30;99.90;;;;;;5125469;28;20070;-68
2021/12/15 07:19:51;;;;;;;58.58;28.17;;;10.30;99.90;;;;;;5125035;28;20132;-68
2021/12/15 07:22:30;;;;;;;53.85;27.48;;;10.30;99.90;;;;;;5103491;28;20055;-68
2021/12/15 07:24:57;;;;;;;64.35;26.77;;;10.30;99.90;;;;;;5121244;28;20430;-68
2021/12/15 07:27:23;;;;;;;53.67;26.92;;;10.30;99.90;;;;;;5125679;28;20124;-68
2021/12/15 07:29:49;;;;;;;50.92;26.40;;;10.30;99.90;;;;;;5124832;28;20045;-68
2021/12/15 07:32:15;;;;;;;45.28;24.48;;;10.30;99.90;;;;;;5125223;28;20048;-68
2021/12/15 07:34:41;;;;;;;52.75;26.48;;;10.30;99.90;;;;;;5106193;28;20069;-68
2021/12/15 07:37:06;;;;;;;54.42;25.30;;;10.30;99.90;;;;;;5106509;28;20075;-68
2021/12/15 07:39:35;;;;;;;49.63;26.15;;;10.30;99.90;;;;;;5101965;28;20036;-62
2021/12/15 07:42:10;;;;;;;48.85;24.73;;;10.30;99.90;;;;;;5104483;28;20044;-66
2021/12/15 07:44:38;;;;;;;46.95;24.67;;;10.30;99.90;;;;;;5123808;28;20047;-68
2021/12/15 07:47:05;;;;;;;52.35;26.38;;;10.30;99.90;;;;;;5124409;28;20051;-64
2021/12/15 07:49:32;;;;;;;49.13;24.42;;;10.30;99.90;;;;;;5118523;28;20032;-68
2021/12/15 07:52:03;;;;;;;50.33;25.85;;;10.30;99.90;;;;;;5088896;28;20112;-63
2021/12/15 07:54:35;;;;;;;54.28;24.98;;;10.30;99.90;;;;;;5105657;28;20073;-65
2021/12/15 07:57:05;;;;;;;45.92;23.88;;;10.30;99.90;;;;;;5105507;28;20119;-64
2021/12/15 07:59:30;;;;;;;47.17;22.15;;;10.30;99.90;;;;;;5104452;28;20048;-63
2021/12/15 08:01:56;;;;;;;56.33;24.15;;;10.30;99.90;;;;;;5102122;28;20066;-64
2021/12/15 08:04:22;;;;;;;49.33;23.67;;;10.30;99.90;;;;;;5084626;28;20060;-65
2021/12/15 08:06:48;;;;;;;47.28;22.42;;;10.30;99.90;;;;;;5105011;28;20294;-68
2021/12/15 08:09:15;;;;;;;48.17;24.50;;;10.30;99.90;;;;;;5124498;28;20104;-66
2021/12/15 08:11:40;;;;;;;37.45;21.80;;;10.30;99.90;;;;;;5124301;28;20103;-64
2021/12/15 08:14:07;;;;;;;36.70;21.63;;;10.30;99.90;;;;;;5124374;28;20085;-64
2021/12/15 08:16:33;;;;;;;46.33;20.88;;;10.30;99.90;;;;;;5102289;28;20115;-66
2021/12/15 08:18:59;;;;;;;43.70;20.65;;;10.30;99.90;;;;;;5101965;28;20056;-64
2021/12/15 08:21:25;;;;;;;35.53;19.85;;;10.30;99.90;;;;;;5084587;28;20112;-64
2021/12/15 08:23:51;;;;;;;35.05;19.08;;;10.30;99.90;;;;;;5103781;28;20464;-65
2021/12/15 08:26:17;;;;;;;43.65;19.80;;;10.30;99.90;;;;;;5101935;28;20056;-64
2021/12/15 08:28:43;;;;;;;41.83;17.98;;;10.30;99.90;;;;;;5103526;28;20126;-64
2021/12/15 08:31:09;;;;;;;39.88;16.67;;;10.30;99.90;;;;;;5102063;28;20384;-63
2021/12/15 08:33:36;;;;;;;31.15;16.02;;;10.30;99.90;;;;;;5103060;28;20104;-63
2021/12/15 08:36:04;;;;;;;;;;;10.30;99.90;;;;;;5104150;28;20063;-64
2021/12/15 08:38:32;;;;;;;;;;;10.20;99.90;;;;;;5103958;28;19916;-64
2021/12/15 08:40:59;;;;;;;29.65;16.30;;;10.20;99.90;;;;;;5103476;28;19935;-64
2021/12/15 08:43:25;;;;;;;33.38;16.50;;;10.20;99.90;;;;;;5101342;28;20081;-65
2021/12/15 08:45:55;;;;;;;30.17;15.48;;;10.20;99.90;;;;;;5101992;28;20058;-65
2021/12/15 08:48:21;;;;;;;32.78;16.48;;;10.20;99.90;;;;;;5102873;28;20094;-67
2021/12/15 08:50:48;;;;;;;34.08;16.10;;;10.20;99.90;;;;;;5085177;28;20035;-66
2021/12/15 08:53:15;;;;;;;34.72;17.15;;;10.20;99.90;;;;;;5093198;28;20051;-64
2021/12/15 08:55:46;;;;;;;34.38;16.75;;;10.20;99.90;;;;;;5096813;28;20115;-65
2021/12/15 08:58:13;;;;;;;39.25;17.92;;;10.20;99.90;;;;;;5084464;28;20074;-64
2021/12/15 09:00:40;;;;;;;32.13;16.95;;;10.20;99.90;;;;;;5103049;28;20058;-63
2021/12/15 09:03:06;;;;;;;35.72;17.23;;;10.20;99.90;;;;;;5102719;28;20058;-64
2021/12/15 09:05:32;;;;;;;38.17;16.85;;;10.30;99.90;;;;;;5101501;28;20085;-65
2021/12/15 09:08:00;;;;;;;37.92;18.27;;;10.30;99.90;;;;;;5103330;28;20044;-67
2021/12/15 09:10:29;;;;;;;33.63;16.30;;;10.30;99.90;;;;;;5103076;28;20139;-68
2021/12/15 09:12:55;;;;;;;29.63;16.13;;;10.30;99.90;;;;;;5101155;28;20047;-69
2021/12/15 09:15:21;;;;;;;39.65;17.17;;;10.30;99.90;;;;;;5101398;28;20112;-66
2021/12/15 09:17:47;;;;;;;29.77;15.52;;;10.30;99.90;;;;;;5083428;28;20075;-69
2021/12/15 09:20:17;;;;;;;29.15;15.55;;;10.30;99.90;;;;;;5103113;28;20456;-68
2021/12/15 09:22:43;;;;;;;33.70;15.98;;;10.30;99.90;;;;;;5102777;28;20056;-67
2021/12/15 09:25:12;;;;;;;33.50;16.25;;;10.30;99.90;;;;;;5089013;28;20051;-67
2021/12/15 09:27:39;;;;;;;34.22;16.27;;;10.30;99.90;;;;;;5094575;28;20103;-66
2021/12/15 09:30:10;;;;;;;30.80;15.52;;;10.30;99.90;;;;;;5091528;28;20041;-67
2021/12/15 09:32:37;;;;;;;29.85;16.30;;;10.30;99.90;;;;;;5095775;28;20044;-66
2021/12/15 09:35:05;;;;;;;29.90;16.05;;;10.30;99.90;;;;;;5094746;28;20040;-67
2021/12/15 09:37:31;;;;;;;30.40;15.02;;;10.40;99.90;;;;;;5068469;28;20387;-66
2021/12/15 09:39:58;;;;;;;30.20;15.10;;;10.40;99.90;;;;;;5087005;28;20052;-66
2021/12/15 09:42:31;;;;;;;30.10;15.85;;;10.40;99.90;;;;;;5091912;28;20052;-65
2021/12/15 09:45:16;;;;;;;34.22;15.43;;;10.40;99.90;;;;;;5094430;28;20140;-67
2021/12/15 10:07:15;;;;;;;28.35;13.18;;;10.60;99.90;;;;;;5095828;28;20048;-61
2021/12/15 10:17:26;;;;;;;23.10;12.07;;;10.60;99.90;;;;;;5095770;28;20106;-61
2021/12/15 10:18:19;;;;;;;17.13;9.98;;;10.60;99.90;;;;;;5097570;28;20153;-60
2021/12/15 10:20:45;;;;;;;16.20;9.35;;;10.60;99.90;;;;;;5090061;28;20052;-60
2021/12/15 10:23:15;;;;;;;;;;;10.70;99.90;;;;;;5092875;28;20093;-61
2021/12/15 10:25:47;;;;;;;19.17;9.60;;;10.60;99.90;;;;;;5084497;28;20066;-59
2021/12/15 10:28:18;;;;;;;18.75;10.15;;;10.60;99.90;;;;;;5089356;28;20086;-60
2021/12/15 10:30:44;;;;;;;17.55;10.73;;;10.70;99.90;;;;;;5090261;28;20499;-60
2021/12/15 10:33:12;;;;;;;18.73;10.47;;;10.70;99.90;;;;;;5090774;28;20074;-60
2021/12/15 10:35:44;;;;;;;20.65;10.45;;;10.70;99.90;;;;;;5091821;28;20052;-60
2021/12/15 10:38:27;;;;;;;21.02;10.90;;;10.70;99.90;;;;;;5096373;28;20064;-60
2021/12/15 10:41:14;;;;;;;22.02;10.93;;;10.70;99.90;;;;;;5086951;28;20048;-60
2021/12/15 10:44:07;;;;;;;18.92;11.23;;;10.70;99.90;;;;;;5092465;28;20070;-59
2021/12/15 10:46:42;;;;;;;21.75;11.48;;;10.70;99.90;;;;;;5088121;28;20049;-59
2021/12/15 10:49:14;;;;;;;17.90;11.55;;;10.70;99.90;;;;;;5089762;28;20040;-59
2021/12/15 10:51:40;;;;;;;25.42;11.23;;;10.70;99.90;;;;;;5093115;28;20040;-59
2021/12/15 10:54:15;;;;;;;19.13;11.17;;;10.70;99.90;;;;;;5091688;28;20067;-59
2021/12/15 10:57:08;;;;;;;23.30;12.23;;;10.70;99.90;;;;;;5093623;28;20295;-61
2021/12/15 10:59:37;;;;;;;25.73;11.68;;;10.80;99.90;;;;;;5095786;28;20101;-60
2021/12/15 11:02:19;;;;;;;24.15;11.68;;;10.80;99.90;;;;;;5088256;28;20040;-62
2021/12/15 11:04:51;;;;;;;22.88;11.48;;;10.80;99.90;;;;;;5091116;28;20129;-61
2021/12/15 11:07:37;;;;;;;22.02;10.93;;;10.80;99.90;;;;;;5089312;28;20059;-61
2021/12/15 11:10:06;;;;;;;20.10;11.48;;;10.80;99.90;;;;;;5093625;28;20075;-61
2021/12/15 11:12:38;;;;;;;22.05;10.52;;;10.80;99.90;;;;;;5088610;28;20132;-61
2021/12/15 11:15:29;;;;;;;17.85;10.75;;;10.80;99.90;;;;;;5083929;28;20053;-61
2021/12/15 11:17:59;;;;;;;24.05;11.70;;;10.70;99.90;;;;;;5080639;28;20045;-60
2021/12/15 11:20:29;;;;;;;20.70;10.85;;;10.80;99.90;;;;;;5071712;28;20044;-60
2021/12/15 11:22:57;;;;;;;24.05;11.13;;;10.80;99.90;;;;;;5078075;28;20056;-58
2021/12/15 11:25:40;;;;;;;18.10;10.73;;;10.80;99.90;;;;;;5074170;28;20075;-60
2021/12/15 11:28:30;;;;;;;24.60;10.98;;;10.80;99.90;;;;;;5077002;28;20093;-63
2021/12/15 11:31:04;;;;;;;22.83;10.82;;;10.80;99.90;;;;;;5073797;28;20045;-58
2021/12/15 11:33:32;;;;;;;20.35;10.57;;;10.80;99.90;;;;;;5078999;28;20251;-58
2021/12/15 11:36:09;;;;;;;19.63;9.70;;;10.80;99.90;;;;;;5080504;28;20036;-59
2021/12/15 11:38:47;;;;;;;19.33;9.63;;;10.80;99.90;;;;;;5077754;28;20052;-60
2021/12/15 11:41:23;;;;;;;18.70;10.30;;;10.90;99.90;;;;;;5082273;28;20411;-60
2021/12/15 11:43:57;;;;;;;21.45;10.05;;;10.90;99.90;;;;;;5074723;28;20076;-60
2021/12/15 11:46:34;;;;;;;18.23;9.68;;;10.90;99.90;;;;;;5072625;28;20055;-60
2021/12/15 11:49:06;;;;;;;21.67;10.82;;;10.90;99.90;;;;;;5079498;28;20048;-60
2021/12/15 11:51:34;;;;;;;16.75;9.23;;;10.90;99.90;;;;;;5083132;28;20054;-60
2021/12/15 11:54:11;;;;;;;18.08;9.10;;;11.00;99.90;;;;;;5077656;28;20094;-58
2021/12/15 11:56:37;;;;;;;;;;;11.00;99.90;;;;;;5083598;28;20045;-58
2021/12/15 11:59:44;;;;;;;18.95;7.95;;;10.90;99.90;;;;;;5080752;28;19924;-58
2021/12/15 12:02:28;;;;;;;11.77;6.53;;;11.00;99.90;;;;;;5019965;28;20092;-59
2021/12/15 12:05:12;;;;;;;14.02;6.35;;;11.00;99.90;;;;;;4994721;28;20490;-58
2021/12/15 12:07:45;;;;;;;13.65;5.40;;;11.00;99.90;;;;;;5019791;28;20042;-58
2021/12/15 12:10:21;;;;;;;14.65;5.53;;;11.00;99.90;;;;;;5015263;28;20160;-58
2021/12/15 12:12:53;;;;;;;15.05;6.20;;;11.00;99.90;;;;;;4984617;28;20180;-58
2021/12/15 12:15:22;;;;;;;14.10;5.50;;;11.00;99.90;;;;;;5019648;28;20092;-59
2021/12/15 12:17:52;;;;;;;10.15;4.78;;;11.00;99.90;;;;;;5021539;28;20069;-58
2021/12/15 12:20:21;;;;;;;11.63;5.50;;;11.00;99.90;;;;;;5029504;28;20075;-59
2021/12/15 12:22:48;;;;;;;10.23;5.25;;;10.90;99.90;;;;;;5024309;28;20076;-59
2021/12/15 12:25:21;;;;;;;11.10;5.18;;;10.90;99.90;;;;;;5022950;28;20151;-58
2021/12/15 12:27:48;;;;;;;9.55;4.93;;;10.90;99.90;;;;;;5008239;28;20444;-58
2021/12/15 12:30:21;;;;;;;12.85;5.25;;;10.90;99.90;;;;;;5024524;28;20509;-58
2021/12/15 12:32:47;;;;;;;19.05;5.20;;;10.80;99.90;;;;;;5019754;28;20057;-58
2021/12/15 12:35:17;;;;;;;11.00;5.00;;;10.80;99.90;;;;;;5031004;28;20045;-58
2021/12/15 12:37:43;;;;;;;14.07;5.50;;;10.80;99.90;;;;;;5031095;28;20416;-58
2021/12/15 12:40:38;;;;;;;11.80;4.47;;;10.70;99.90;;;;;;5046622;28;20064;-59
2021/12/15 12:43:26;;;;;;;10.02;5.20;;;10.70;99.90;;;;;;5073171;28;20449;-59
2021/12/15 12:46:21;;;;;;;9.38;5.05;;;10.70;99.90;;;;;;5068843;28;20088;-59
2021/12/15 12:49:36;;;;;;;14.23;4.38;;;10.60;99.90;;;;;;5067491;28;20033;-58
2021/12/15 13:01:04;;;;;;;11.32;4.28;;;10.50;99.90;;;;;;5042021;28;20059;-59
2021/12/15 13:03:37;;;;;;;8.93;3.67;;;10.50;99.90;;;;;;5042077;28;20057;-59
2021/12/15 13:06:05;;;;;;;15.88;3.92;;;10.40;99.90;;;;;;5043890;28;20148;-62
2021/12/15 13:08:59;;;;;;;9.13;3.05;;;10.40;99.90;;;;;;5042072;28;20053;-58
2021/12/15 13:11:34;;;;;;;9.73;3.83;;;10.40;99.90;;;;;;5048552;28;20065;-60
2021/12/15 13:14:10;;;;;;;11.43;3.78;;;10.40;99.90;;;;;;5042925;28;20104;-60
2021/12/15 13:16:41;;;;;;;10.88;3.75;;;10.40;99.90;;;;;;5046735;28;20168;-60
2021/12/15 13:19:26;;;;;;;8.40;3.67;;;10.40;99.90;;;;;;5041750;28;20173;-59
2021/12/15 13:22:15;;;;;;;7.68;3.20;;;10.40;99.90;;;;;;5059114;28;20052;-60
2021/12/15 13:30:34;;;;;;;9.57;3.20;;;10.40;99.90;;;;;;5043849;28;20153;-66
2021/12/15 13:33:12;;;;;;;6.68;3.10;;;10.40;99.90;;;;;;4957711;28;20072;-61
2021/12/15 13:35:43;;;;;;;7.28;3.17;;;10.30;99.90;;;;;;5025231;28;20054;-60
2021/12/15 13:38:11;;;;;;;7.80;2.95;;;10.30;99.90;;;;;;5021256;28;20390;-63
2021/12/15 13:40:49;;;;;;;9.10;3.38;;;10.30;99.90;;;;;;5023533;28;20132;-63
2021/12/15 13:43:38;;;;;;;7.57;3.50;;;10.20;99.90;;;;;;5036189;28;20038;-69
2021/12/15 13:46:12;;;;;;;9.93;3.28;;;10.30;99.90;;;;;;5028428;28;20099;-64
2021/12/15 13:49:00;;;;;;;11.25;3.17;;;10.20;99.90;;;;;;5019355;28;20470;-66
2021/12/15 13:52:03;;;;;;;11.27;2.90;;;10.20;99.90;;;;;;5041608;28;20057;-67
2021/12/15 13:54:37;;;;;;;11.65;3.22;;;10.20;99.90;;;;;;5017134;28;20088;-66
2021/12/15 13:57:12;;;;;;;6.57;3.17;;;10.10;99.90;;;;;;5019966;28;20042;-66
2021/12/15 14:00:01;;;;;;;7.28;2.90;;;10.20;99.90;;;;;;5017058;28;20070;-67
2021/12/15 14:02:39;;;;;;;7.13;2.88;;;10.10;99.90;;;;;;5019886;28;20081;-66
2021/12/15 14:05:14;;;;;;;6.03;2.53;;;10.10;99.90;;;;;;5013379;28;20038;-66
2021/12/15 14:07:41;;;;;;;9.80;2.65;;;10.10;99.90;;;;;;5020672;28;20657;-66
2021/12/15 14:10:10;;;;;;;8.00;2.55;;;10.10;99.90;;;;;;5020020;28;20386;-66